^^
Saratoga-Weather Station Historical Data
Daily Summary for January 7, 2021 Units:  Metric    English   Both
Daily Weekly Monthly Yearly Custom
  High: Low: Average:
Temperature: 8.6 °C 4.1 °C 6.5 °C
Dew Point: 8 °C 2.8 °C 5.4 °C
Humidity: 96% 87% 93%
Wind Speed: 16.3km/h 0km/h 3.9km/h
Wind Gust: 22.5km/h - -
Wind- - West
Pressure: 1025.4 hPa 1019.0 hPa -
Precipitation: 1.3 mm    
Historical Graphs
 
 
Tabular Data for January 7, 2021
Time Temperature Dew Point Pressure Wind Wind Speed Wind Gust Humidity Rainfall Rate (Hourly) solar
00:01 4.5 °C 3.2 °C 1025.4 hPa Calm   1.6 km/h 91% 0.0 mm 0 W/m2
00:06 4.5 °C 3.2 °C 1025.4 hPa Calm   8 km/h 91% 0.0 mm 0 W/m2
00:11 4.5 °C 3.2 °C 1025.4 hPa West 1.4 km/h 6.4 km/h 91% 0.0 mm 0 W/m2
00:16 4.5 °C 3.2 °C 1025.1 hPa NNW 3.2 km/h 4.8 km/h 91% 0.0 mm 0 W/m2
00:21 4.5 °C 3.2 °C 1025.1 hPa Calm   6.4 km/h 91% 0.0 mm 0 W/m2
00:26 4.5 °C 3.2 °C 1025.1 hPa Calm   1.6 km/h 91% 0.0 mm 0 W/m2
00:31 4.4 °C 3.1 °C 1025.1 hPa Calm   3.2 km/h 91% 0.0 mm 0 W/m2
00:36 4.4 °C 3.1 °C 1025.1 hPa Calm     91% 0.0 mm 0 W/m2
00:41 4.4 °C 3.1 °C 1025.1 hPa Calm   1.6 km/h 91% 0.0 mm 0 W/m2
00:46 4.4 °C 3.1 °C 1025.1 hPa North 1.4 km/h 3.2 km/h 91% 0.0 mm 0 W/m2
00:51 4.4 °C 3.1 °C 1025.1 hPa Calm   3.2 km/h 91% 0.0 mm 0 W/m2
00:56 4.3 °C 3 °C 1024.7 hPa Calm   3.2 km/h 91% 0.0 mm 0 W/m2
01:01 4.3 °C 3 °C 1024.7 hPa South 1.4 km/h 3.2 km/h 91% 0.0 mm 0 W/m2
01:06 4.2 °C 2.9 °C 1024.7 hPa Calm   3.2 km/h 91% 0.0 mm 0 W/m2
01:11 4.2 °C 2.9 °C 1024.4 hPa North 1.4 km/h 3.2 km/h 91% 0.0 mm 0 W/m2
01:16 4.1 °C 2.8 °C 1024.0 hPa SW 8 km/h 8 km/h 91% 0.0 mm 0 W/m2
01:21 4.2 °C 3 °C 1024.0 hPa Calm   3.2 km/h 92% 0.0 mm 0 W/m2
01:26 4.2 °C 3 °C 1024.4 hPa Calm   3.2 km/h 92% 0.0 mm 0 W/m2
01:31 4.2 °C 3 °C 1024.4 hPa Calm   3.2 km/h 92% 0.0 mm 0 W/m2
01:36 4.3 °C 3.1 °C 1024.0 hPa NW 6.4 km/h 8 km/h 92% 0.0 mm 0 W/m2
01:41 4.4 °C 3.2 °C 1024.0 hPa West 4.7 km/h 4.8 km/h 92% 0.0 mm 0 W/m2
01:46 4.4 °C 3.2 °C 1024.0 hPa NW 4.7 km/h 8 km/h 92% 0.0 mm 0 W/m2
01:51 4.5 °C 3.3 °C 1023.7 hPa WNW 1.4 km/h 3.2 km/h 92% 0.0 mm 0 W/m2
01:56 4.5 °C 3.3 °C 1023.7 hPa West 9.7 km/h 9.7 km/h 92% 0.0 mm 0 W/m2
02:01 4.5 °C 3.3 °C 1023.7 hPa West 4.7 km/h 4.8 km/h 92% 0.0 mm 0 W/m2
02:06 4.6 °C 3.4 °C 1023.7 hPa NW 3.2 km/h 6.4 km/h 92% 0.0 mm 0 W/m2
02:11 4.7 °C 3.5 °C 1023.7 hPa NW 3.2 km/h 3.2 km/h 92% 0.0 mm 0 W/m2
02:16 4.7 °C 3.4 °C 1023.4 hPa NW 4.7 km/h 4.8 km/h 91% 0.0 mm 0 W/m2
02:21 4.7 °C 3.4 °C 1023.4 hPa Calm   3.2 km/h 91% 0.0 mm 0 W/m2
02:26 4.7 °C 3.5 °C 1023.4 hPa NW 4.7 km/h 11.3 km/h 92% 0.0 mm 0 W/m2
02:31 4.8 °C 3.6 °C 1023.4 hPa West 1.4 km/h 8 km/h 92% 0.0 mm 0 W/m2
02:36 4.8 °C 3.6 °C 1023.4 hPa WNW 3.2 km/h 4.8 km/h 92% 0.0 mm 0 W/m2
02:41 4.8 °C 3.6 °C 1023.7 hPa North 1.4 km/h 3.2 km/h 92% 0.0 mm 0 W/m2
02:46 4.9 °C 3.6 °C 1024.0 hPa WNW 6.4 km/h 9.7 km/h 91% 0.0 mm 0 W/m2
02:51 4.9 °C 3.6 °C 1024.0 hPa WNW 4.7 km/h 6.4 km/h 91% 0.0 mm 0 W/m2
02:56 4.9 °C 3.6 °C 1024.0 hPa WNW 3.2 km/h 8 km/h 91% 0.0 mm 0 W/m2
03:01 4.9 °C 3.6 °C 1023.7 hPa West 3.2 km/h 3.2 km/h 91% 0.0 mm 0 W/m2
03:06 4.9 °C 3.6 °C 1023.7 hPa NNW 3.2 km/h 4.8 km/h 91% 0.0 mm 0 W/m2
03:11 4.8 °C 3.5 °C 1023.4 hPa NNW 4.7 km/h 6.4 km/h 91% 0.0 mm 0 W/m2
03:16 4.8 °C 3.5 °C 1023.4 hPa WNW 4.7 km/h 4.8 km/h 91% 0.0 mm 0 W/m2
03:21 4.8 °C 3.5 °C 1023.4 hPa Calm   1.6 km/h 91% 0.0 mm 0 W/m2
03:26 4.7 °C 3.4 °C 1023.4 hPa NE 3.2 km/h 3.2 km/h 91% 0.0 mm 0 W/m2
03:31 4.7 °C 3.5 °C 1023.4 hPa NW 1.4 km/h 4.8 km/h 92% 0.0 mm 0 W/m2
03:36 4.7 °C 3.4 °C 1023.4 hPa NNW 3.2 km/h 4.8 km/h 91% 0.0 mm 0 W/m2
03:41 4.7 °C 3.5 °C 1023.0 hPa Calm   1.6 km/h 92% 0.0 mm 0 W/m2
03:46 4.7 °C 3.5 °C 1023.0 hPa Calm   1.6 km/h 92% 0.0 mm 0 W/m2
03:51 4.7 °C 3.5 °C 1023.0 hPa Calm   1.6 km/h 92% 0.0 mm 0 W/m2
03:56 4.7 °C 3.5 °C 1023.0 hPa North 3.2 km/h 3.2 km/h 92% 0.0 mm 0 W/m2
04:01 4.7 °C 3.5 °C 1023.0 hPa NW 3.2 km/h 3.2 km/h 92% 0.0 mm 0 W/m2
04:06 4.8 °C 3.6 °C 1023.0 hPa NE 1.4 km/h 4.8 km/h 92% 0.0 mm 0 W/m2
04:11 4.8 °C 3.6 °C 1023.0 hPa Calm   4.8 km/h 92% 0.0 mm 0 W/m2
04:16 4.8 °C 3.6 °C 1023.0 hPa Calm     92% 0.0 mm 0 W/m2
04:21 4.8 °C 3.6 °C 1023.0 hPa Calm   3.2 km/h 92% 0.0 mm 0 W/m2
04:26 4.9 °C 3.7 °C 1022.7 hPa Calm   1.6 km/h 92% 0.0 mm 0 W/m2
04:31 4.9 °C 3.7 °C 1022.7 hPa Calm   1.6 km/h 92% 0.0 mm 0 W/m2
04:36 4.8 °C 3.6 °C 1022.4 hPa NE 1.4 km/h 4.8 km/h 92% 0.0 mm 0 W/m2
04:41 4.8 °C 3.6 °C 1022.4 hPa SW 1.4 km/h 3.2 km/h 92% 0.0 mm 0 W/m2
04:46 4.9 °C 3.7 °C 1022.4 hPa West 1.4 km/h 4.8 km/h 92% 0.0 mm 0 W/m2
04:51 4.9 °C 3.7 °C 1022.7 hPa WNW 3.2 km/h 3.2 km/h 92% 0.0 mm 0 W/m2
04:56 4.9 °C 3.7 °C 1023.0 hPa Calm   1.6 km/h 92% 0.0 mm 0 W/m2
05:01 4.9 °C 3.7 °C 1022.7 hPa East 3.2 km/h 4.8 km/h 92% 0.0 mm 0 W/m2
05:06 4.9 °C 3.7 °C 1022.4 hPa Calm   4.8 km/h 92% 0.0 mm 0 W/m2
05:11 5 °C 3.8 °C 1022.4 hPa West 6.4 km/h 6.4 km/h 92% 0.0 mm 0 W/m2
05:16 5 °C 3.8 °C 1022.4 hPa ENE 3.2 km/h 6.4 km/h 92% 0.0 mm 0 W/m2
05:21 5.1 °C 3.9 °C 1022.4 hPa West 1.4 km/h 8 km/h 92% 0.0 mm 0 W/m2
05:26 5.1 °C 3.9 °C 1022.4 hPa NNW 4.7 km/h 9.7 km/h 92% 0.0 mm 0 W/m2
05:31 5.2 °C 4 °C 1022.4 hPa Calm   6.4 km/h 92% 0.0 mm 0 W/m2
05:36 5.2 °C 4 °C 1022.0 hPa ENE 1.4 km/h 9.7 km/h 92% 0.0 mm 0 W/m2
05:41 5.2 °C 4 °C 1022.0 hPa Calm   8 km/h 92% 0.0 mm 0 W/m2
05:46 5.3 °C 4.1 °C 1022.0 hPa East 1.4 km/h 6.4 km/h 92% 0.0 mm 0 W/m2
05:52 5.3 °C 4.1 °C 1022.0 hPa WNW 3.2 km/h 14.5 km/h 92% 0.0 mm 0 W/m2
05:57 5.3 °C 4.1 °C 1022.0 hPa Calm   3.2 km/h 92% 0.0 mm 0 W/m2
06:02 5.3 °C 4.1 °C 1021.7 hPa NW 1.4 km/h 14.5 km/h 92% 0.0 mm 0 W/m2
06:07 5.4 °C 4.2 °C 1021.7 hPa NE 3.2 km/h 3.2 km/h 92% 0.0 mm 0 W/m2
06:12 5.4 °C 4.2 °C 1021.3 hPa SW 6.4 km/h 11.3 km/h 92% 0.0 mm 0 W/m2
06:17 5.4 °C 4.2 °C 1021.3 hPa SE 1.4 km/h 3.2 km/h 92% 0.0 mm 0 W/m2
06:22 5.4 °C 4.2 °C 1021.3 hPa North 3.2 km/h 4.8 km/h 92% 0.0 mm 0 W/m2
06:27 5.4 °C 4.2 °C 1021.3 hPa SW 3.2 km/h 20.9 km/h 92% 0.0 mm 0 W/m2
06:32 5.4 °C 4.2 °C 1021.0 hPa NNW 4.7 km/h 4.8 km/h 92% 0.0 mm 0 W/m2
06:37 5.4 °C 4.2 °C 1021.3 hPa WNW 11.1 km/h 20.9 km/h 92% 0.0 mm 0 W/m2
06:42 5.5 °C 4.3 °C 1021.0 hPa ENE 9.7 km/h 11.3 km/h 92% 0.0 mm 0 W/m2
06:47 5.5 °C 4.3 °C 1020.7 hPa WSW 1.4 km/h 3.2 km/h 92% 0.0 mm 0 W/m2
06:52 5.5 °C 4.5 °C 1021.0 hPa NE 3.2 km/h 8 km/h 93% 0.0 mm 0 W/m2
06:57 5.5 °C 4.5 °C 1020.7 hPa WNW 4.7 km/h 8 km/h 93% 0.0 mm 0 W/m2
07:02 5.6 °C 4.6 °C 1020.7 hPa NW 16.3 km/h 16.1 km/h 93% 0.0 mm 0 W/m2
07:07 5.6 °C 4.6 °C 1020.7 hPa NNW 6.4 km/h 8 km/h 93% 0.0 mm 0 W/m2
07:12 5.6 °C 4.6 °C 1020.7 hPa NW 16.1 km/h 16.1 km/h 93% 0.0 mm 0 W/m2
07:17 5.6 °C 4.6 °C 1020.7 hPa WNW 3.2 km/h 6.4 km/h 93% 0.0 mm 0 W/m2
07:22 5.6 °C 4.6 °C 1020.7 hPa West 6.4 km/h 14.5 km/h 93% 0.0 mm 0 W/m2
07:27 5.6 °C 4.6 °C 1020.7 hPa NW 4.7 km/h 6.4 km/h 93% 0.0 mm 0 W/m2
07:32 5.6 °C 4.6 °C 1020.7 hPa West 6.4 km/h 14.5 km/h 93% 0.0 mm 0 W/m2
07:37 5.6 °C 4.6 °C 1020.7 hPa NNW 1.4 km/h 3.2 km/h 93% 0.0 mm 0 W/m2
07:42 5.6 °C 4.6 °C 1020.3 hPa West 1.4 km/h 8 km/h 93% 0.0 mm 5 W/m2
07:47 5.6 °C 4.6 °C 1020.7 hPa NNW 1.4 km/h 8 km/h 93% 0.0 mm 7 W/m2
07:52 5.6 °C 4.7 °C 1020.7 hPa NW 1.4 km/h 4.8 km/h 94% 0.0 mm 11 W/m2
07:57 5.6 °C 4.7 °C 1020.7 hPa NW 3.2 km/h 6.4 km/h 94% 0.0 mm 14 W/m2
08:02 5.6 °C 4.7 °C 1020.7 hPa NNE 7.9 km/h 14.5 km/h 94% 0.0 mm 18 W/m2
08:07 5.6 °C 4.7 °C 1020.7 hPa WNW 1.4 km/h 4.8 km/h 94% 0.0 mm 19 W/m2
08:12 5.6 °C 4.7 °C 1020.7 hPa NW 14.5 km/h 14.5 km/h 94% 0.0 mm 18 W/m2
08:17 5.7 °C 4.8 °C 1020.7 hPa SW 1.4 km/h 6.4 km/h 94% 0.0 mm 16 W/m2
08:22 5.7 °C 4.8 °C 1020.7 hPa NW 7.9 km/h 11.3 km/h 94% 0.0 mm 21 W/m2
08:27 5.7 °C 4.8 °C 1020.7 hPa NW 1.4 km/h 9.7 km/h 94% 0.0 mm 21 W/m2
08:32 5.7 °C 4.8 °C 1020.7 hPa NW 1.4 km/h 3.2 km/h 94% 0.0 mm 23 W/m2
08:37 5.8 °C 4.9 °C 1020.7 hPa NW 1.4 km/h 8 km/h 94% 0.0 mm 19 W/m2
08:42 5.8 °C 5.1 °C 1020.7 hPa NNW 1.4 km/h 4.8 km/h 95% 0.0 mm 18 W/m2
08:47 5.8 °C 5.1 °C 1020.7 hPa Calm   6.4 km/h 95% 0.2 mm 21 W/m2
08:52 5.8 °C 5.1 °C 1020.7 hPa NNW 1.4 km/h 6.4 km/h 95% 0.2 mm 14 W/m2
08:57 5.8 °C 5.1 °C 1020.7 hPa Calm   4.8 km/h 95% 0.2 mm 21 W/m2
09:02 5.8 °C 5.1 °C 1020.7 hPa NE 3.2 km/h 4.8 km/h 95% 0.2 mm 19 W/m2
09:07 5.8 °C 5.1 °C 1020.7 hPa Calm   3.2 km/h 95% 0.2 mm 26 W/m2
09:12 5.8 °C 5.1 °C 1020.7 hPa NE 1.4 km/h 4.8 km/h 95% 0.2 mm 35 W/m2
09:17 5.9 °C 5.2 °C 1020.7 hPa Calm   3.2 km/h 95% 0.2 mm 28 W/m2
09:22 5.9 °C 5.2 °C 1020.7 hPa North 1.4 km/h 4.8 km/h 95% 0.2 mm 25 W/m2
09:27 5.9 °C 5.2 °C 1020.7 hPa North 3.2 km/h 3.2 km/h 95% 0.5 mm 35 W/m2
09:32 6 °C 5.3 °C 1020.7 hPa WNW 4.7 km/h 4.8 km/h 95% 0.5 mm 51 W/m2
09:37 6.1 °C 5.4 °C 1020.7 hPa Calm   1.6 km/h 95% 0.5 mm 72 W/m2
09:42 6.1 °C 5.4 °C 1020.7 hPa Calm   1.6 km/h 95% 0.5 mm 84 W/m2
09:47 6.2 °C 5.5 °C 1020.7 hPa NW 3.2 km/h 3.2 km/h 95% 0.5 mm 47 W/m2
09:52 6.3 °C 5.6 °C 1020.7 hPa NW 4.7 km/h 6.4 km/h 95% 0.5 mm 39 W/m2
09:57 6.3 °C 5.7 °C 1020.7 hPa NW 4.7 km/h 6.4 km/h 96% 0.5 mm 63 W/m2
10:02 6.4 °C 5.8 °C 1020.3 hPa NNW 4.7 km/h 4.8 km/h 96% 0.5 mm 113 W/m2
10:07 6.6 °C 5.9 °C 1020.0 hPa East 1.4 km/h 3.2 km/h 95% 0.8 mm 125 W/m2
10:12 6.7 °C 6 °C 1020.0 hPa West 1.4 km/h 6.4 km/h 95% 0.8 mm 214 W/m2
10:17 6.8 °C 6.2 °C 1019.6 hPa Calm   6.4 km/h 96% 0.8 mm 53 W/m2
10:22 6.8 °C 6.1 °C 1020.0 hPa West 3.2 km/h 14.5 km/h 95% 0.8 mm 93 W/m2
10:27 6.9 °C 6.2 °C 1020.3 hPa Calm   4.8 km/h 95% 0.5 mm 58 W/m2
10:32 6.9 °C 6.2 °C 1020.3 hPa WNW 1.4 km/h 6.4 km/h 95% 0.5 mm 74 W/m2
10:37 6.9 °C 6.2 °C 1020.0 hPa NW 3.2 km/h 6.4 km/h 95% 0.5 mm 125 W/m2
10:42 7 °C 6.3 °C 1020.3 hPa NNE 4.7 km/h 16.1 km/h 95% 0.5 mm 130 W/m2
10:47 7.1 °C 6.4 °C 1020.3 hPa WNW 1.4 km/h 6.4 km/h 95% 0.2 mm 120 W/m2
10:52 7.2 °C 6.5 °C 1020.3 hPa WNW 3.2 km/h 16.1 km/h 95% 0.2 mm 97 W/m2
10:57 7.2 °C 6.5 °C 1020.3 hPa NNW 3.2 km/h 14.5 km/h 95% 0.2 mm 56 W/m2
11:02 7.2 °C 6.5 °C 1020.3 hPa NW 3.2 km/h 12.9 km/h 95% 0.2 mm 51 W/m2
11:07 7.1 °C 6.4 °C 1020.3 hPa West 6.4 km/h 16.1 km/h 95% 0.0 mm 47 W/m2
11:12 7.1 °C 6.4 °C 1020.7 hPa NE 4.7 km/h 6.4 km/h 95% 0.0 mm 53 W/m2
11:17 7.1 °C 6.4 °C 1020.7 hPa Calm   14.5 km/h 95% 0.0 mm 54 W/m2
11:22 7.2 °C 6.5 °C 1020.3 hPa NW 3.2 km/h 11.3 km/h 95% 0.0 mm 49 W/m2
11:27 7.1 °C 6.4 °C 1020.0 hPa NW 3.2 km/h 11.3 km/h 95% 0.0 mm 58 W/m2
11:32 7.1 °C 6.4 °C 1020.3 hPa North 3.2 km/h 9.7 km/h 95% 0.0 mm 53 W/m2
11:37 7.2 °C 6.5 °C 1020.3 hPa West 9.7 km/h 12.9 km/h 95% 0.0 mm 69 W/m2
11:42 7.2 °C 6.5 °C 1020.3 hPa WNW 4.7 km/h 14.5 km/h 95% 0.0 mm 70 W/m2
11:47 7.2 °C 6.5 °C 1020.0 hPa West 4.7 km/h 12.9 km/h 95% 0.0 mm 70 W/m2
11:52 7.2 °C 6.5 °C 1020.0 hPa NNW 6.4 km/h 8 km/h 95% 0.0 mm 91 W/m2
11:57 7.2 °C 6.5 °C 1020.0 hPa West 4.7 km/h 8 km/h 95% 0.0 mm 88 W/m2
12:02 7.2 °C 6.5 °C 1020.0 hPa WNW 3.2 km/h 14.5 km/h 95% 0.0 mm 65 W/m2
12:07 7.3 °C 6.6 °C 1020.0 hPa SSW 1.4 km/h 3.2 km/h 95% 0.0 mm 49 W/m2
12:12 7.3 °C 6.6 °C 1020.0 hPa WNW 11.1 km/h 16.1 km/h 95% 0.2 mm 49 W/m2
12:17 7.3 °C 6.6 °C 1020.3 hPa WNW 4.7 km/h 6.4 km/h 95% 0.2 mm 42 W/m2
12:22 7.3 °C 6.6 °C 1020.0 hPa West 4.7 km/h 16.1 km/h 95% 0.2 mm 67 W/m2
12:27 7.4 °C 6.7 °C 1020.0 hPa NNW 6.4 km/h 9.7 km/h 95% 0.2 mm 67 W/m2
12:32 7.4 °C 6.7 °C 1019.6 hPa West 6.4 km/h 22.5 km/h 95% 0.2 mm 70 W/m2
12:37 7.4 °C 6.7 °C 1019.6 hPa West 9.7 km/h 19.3 km/h 95% 0.2 mm 70 W/m2
12:42 7.5 °C 6.8 °C 1019.3 hPa North 4.7 km/h 6.4 km/h 95% 0.2 mm 72 W/m2
12:47 7.5 °C 6.8 °C 1019.3 hPa WNW 6.4 km/h 8 km/h 95% 0.2 mm 77 W/m2
12:52 7.6 °C 6.9 °C 1019.3 hPa Calm   16.1 km/h 95% 0.2 mm 63 W/m2
12:57 7.6 °C 6.9 °C 1019.6 hPa West 3.2 km/h 6.4 km/h 95% 0.2 mm 69 W/m2
13:02 7.7 °C 6.9 °C 1019.3 hPa NNW 3.2 km/h 8 km/h 95% 0.2 mm 91 W/m2
13:07 7.7 °C 6.9 °C 1019.3 hPa West 1.4 km/h 9.7 km/h 95% 0.2 mm 79 W/m2
13:12 7.7 °C 6.9 °C 1019.6 hPa SW 7.9 km/h 17.7 km/h 95% 0.0 mm 105 W/m2
13:17 7.7 °C 6.9 °C 1019.3 hPa NW 1.4 km/h 4.8 km/h 95% 0.0 mm 77 W/m2
13:22 7.8 °C 7 °C 1019.3 hPa WNW 1.4 km/h 9.7 km/h 95% 0.0 mm 81 W/m2
13:27 7.8 °C 7 °C 1019.3 hPa West 4.7 km/h 8 km/h 95% 0.0 mm 63 W/m2
13:32 7.8 °C 7 °C 1019.3 hPa NW 3.2 km/h 9.7 km/h 95% 0.0 mm 53 W/m2
13:37 7.8 °C 7 °C 1019.3 hPa NW 6.4 km/h 8 km/h 95% 0.0 mm 54 W/m2
13:42 7.8 °C 7 °C 1019.0 hPa NW 3.2 km/h 11.3 km/h 95% 0.0 mm 60 W/m2
13:47 7.8 °C 7 °C 1019.3 hPa NW 4.7 km/h 11.3 km/h 95% 0.0 mm 47 W/m2
13:52 7.8 °C 7 °C 1019.3 hPa West 6.4 km/h 9.7 km/h 95% 0.0 mm 46 W/m2
13:57 7.8 °C 7 °C 1019.0 hPa West 3.2 km/h 12.9 km/h 95% 0.0 mm 39 W/m2
14:02 7.8 °C 7 °C 1019.0 hPa West 6.4 km/h 8 km/h 95% 0.0 mm 40 W/m2
14:07 7.8 °C 7 °C 1019.0 hPa WNW 6.4 km/h 12.9 km/h 95% 0.0 mm 26 W/m2
14:12 7.8 °C 7 °C 1019.0 hPa Calm   12.9 km/h 95% 0.0 mm 18 W/m2
14:17 7.9 °C 7.1 °C 1019.0 hPa WSW 1.4 km/h 3.2 km/h 95% 0.0 mm 16 W/m2
14:22 7.9 °C 7.1 °C 1019.0 hPa NNW 4.7 km/h 12.9 km/h 95% 0.0 mm 19 W/m2
14:27 7.9 °C 7.1 °C 1019.0 hPa WNW 1.4 km/h 3.2 km/h 95% 0.0 mm 19 W/m2
14:32 7.9 °C 7.1 °C 1019.0 hPa WNW 1.4 km/h 12.9 km/h 95% 0.0 mm 21 W/m2
14:38 7.9 °C 7.1 °C 1019.0 hPa West 3.2 km/h 8 km/h 95% 0.0 mm 16 W/m2
14:43 8 °C 7.2 °C 1019.0 hPa West 6.4 km/h 6.4 km/h 95% 0.0 mm 23 W/m2
14:48 8 °C 7.2 °C 1019.0 hPa WSW 4.7 km/h 4.8 km/h 95% 0.0 mm 30 W/m2
14:53 8 °C 7.2 °C 1019.0 hPa Calm   1.6 km/h 95% 0.0 mm 33 W/m2
14:58 8.1 °C 7.3 °C 1019.0 hPa WNW 3.2 km/h 4.8 km/h 95% 0.0 mm 39 W/m2
15:03 8.1 °C 7.3 °C 1019.0 hPa West 1.4 km/h 4.8 km/h 95% 0.0 mm 47 W/m2
15:08 8.2 °C 7.4 °C 1019.0 hPa Calm   6.4 km/h 95% 0.0 mm 39 W/m2
15:13 8.2 °C 7.4 °C 1019.0 hPa WNW 3.2 km/h 4.8 km/h 95% 0.0 mm 32 W/m2
15:18 8.2 °C 7.4 °C 1019.0 hPa Calm   4.8 km/h 95% 0.0 mm 33 W/m2
15:23 8.2 °C 7.4 °C 1019.0 hPa West 3.2 km/h 6.4 km/h 95% 0.0 mm 26 W/m2
15:28 8.2 °C 7.4 °C 1019.0 hPa West 4.7 km/h 4.8 km/h 95% 0.0 mm 32 W/m2
15:33 8.3 °C 7.5 °C 1019.0 hPa WNW 1.4 km/h 6.4 km/h 95% 0.0 mm 26 W/m2
15:38 8.3 °C 7.5 °C 1019.0 hPa Calm   3.2 km/h 95% 0.0 mm 14 W/m2
15:43 8.3 °C 7.5 °C 1019.3 hPa NW 1.4 km/h 6.4 km/h 95% 0.0 mm 9 W/m2
15:48 8.3 °C 7.5 °C 1019.3 hPa WNW 7.9 km/h 9.7 km/h 95% 0.0 mm 7 W/m2
15:53 8.3 °C 7.5 °C 1019.3 hPa WNW 3.2 km/h 3.2 km/h 95% 0.0 mm 9 W/m2
15:58 8.3 °C 7.5 °C 1019.3 hPa WSW 1.4 km/h 3.2 km/h 95% 0.0 mm 7 W/m2
16:03 8.3 °C 7.5 °C 1019.3 hPa Calm   6.4 km/h 95% 0.0 mm 9 W/m2
16:08 8.3 °C 7.5 °C 1019.3 hPa NW 1.4 km/h 3.2 km/h 95% 0.0 mm 5 W/m2
16:13 8.3 °C 7.5 °C 1019.3 hPa NNW 1.4 km/h 6.4 km/h 95% 0.0 mm 14 W/m2
16:18 8.3 °C 7.5 °C 1019.3 hPa WNW 6.4 km/h 6.4 km/h 95% 0.0 mm 19 W/m2
16:23 8.3 °C 7.7 °C 1019.0 hPa West 6.4 km/h 11.3 km/h 96% 0.0 mm 26 W/m2
16:28 8.4 °C 7.8 °C 1019.0 hPa West 4.7 km/h 8 km/h 96% 0.0 mm 18 W/m2
16:33 8.4 °C 7.8 °C 1019.3 hPa WNW 4.7 km/h 11.3 km/h 96% 0.0 mm 14 W/m2
16:38 8.4 °C 7.8 °C 1019.0 hPa SW 7.9 km/h 12.9 km/h 96% 0.0 mm 12 W/m2
16:43 8.5 °C 7.9 °C 1019.0 hPa SW 6.4 km/h 9.7 km/h 96% 0.0 mm 11 W/m2
16:48 8.5 °C 7.9 °C 1019.0 hPa West 3.2 km/h 8 km/h 96% 0.0 mm 11 W/m2
16:53 8.6 °C 8 °C 1019.3 hPa WNW 1.4 km/h 4.8 km/h 96% 0.0 mm 7 W/m2
16:58 8.6 °C 8 °C 1019.3 hPa West 9.7 km/h 11.3 km/h 96% 0.0 mm 0 W/m2
17:03 8.6 °C 7.8 °C 1019.3 hPa West 4.7 km/h 9.7 km/h 95% 0.0 mm 0 W/m2
17:08 8.6 °C 7.8 °C 1019.3 hPa West 3.2 km/h 11.3 km/h 95% 0.0 mm 0 W/m2
17:13 8.6 °C 7.8 °C 1019.3 hPa NW 6.4 km/h 11.3 km/h 95% 0.0 mm 0 W/m2
17:18 8.6 °C 7.8 °C 1019.3 hPa WSW 7.9 km/h 8 km/h 95% 0.0 mm 0 W/m2
17:23 8.6 °C 7.8 °C 1019.6 hPa West 4.7 km/h 9.7 km/h 95% 0.0 mm 0 W/m2
17:28 8.6 °C 7.8 °C 1019.6 hPa WSW 4.7 km/h 9.7 km/h 95% 0.0 mm 0 W/m2
17:33 8.6 °C 7.8 °C 1019.6 hPa WNW 4.7 km/h 11.3 km/h 95% 0.0 mm 0 W/m2
17:38 8.6 °C 7.8 °C 1019.6 hPa WSW 3.2 km/h 6.4 km/h 95% 0.0 mm 0 W/m2
17:43 8.6 °C 7.8 °C 1019.6 hPa SW 9.7 km/h 12.9 km/h 95% 0.0 mm 0 W/m2
17:48 8.5 °C 7.7 °C 1019.6 hPa West 3.2 km/h 6.4 km/h 95% 0.0 mm 0 W/m2
17:53 8.4 °C 7.6 °C 1019.6 hPa West 4.7 km/h 11.3 km/h 95% 0.0 mm 0 W/m2
17:58 8.4 °C 7.6 °C 1019.6 hPa West 4.7 km/h 11.3 km/h 95% 0.0 mm 0 W/m2
18:03 8.4 °C 7.6 °C 1019.6 hPa West 4.7 km/h 12.9 km/h 95% 0.0 mm 0 W/m2
18:08 8.4 °C 7.6 °C 1019.6 hPa West 4.7 km/h 11.3 km/h 95% 0.0 mm 0 W/m2
18:13 8.4 °C 7.6 °C 1019.6 hPa West 4.7 km/h 12.9 km/h 95% 0.0 mm 0 W/m2
18:18 8.3 °C 7.5 °C 1019.6 hPa WNW 11.1 km/h 12.9 km/h 95% 0.0 mm 0 W/m2
18:23 8.3 °C 7.5 °C 1019.6 hPa West 3.2 km/h 11.3 km/h 95% 0.0 mm 0 W/m2
18:28 8.3 °C 7.4 °C 1019.6 hPa WNW 3.2 km/h 12.9 km/h 94% 0.0 mm 0 W/m2
18:33 8.2 °C 7.3 °C 1019.6 hPa WSW 4.7 km/h 14.5 km/h 94% 0.0 mm 0 W/m2
18:38 8.2 °C 7.1 °C 1019.6 hPa WNW 6.4 km/h 11.3 km/h 93% 0.0 mm 0 W/m2
18:43 8.2 °C 7.1 °C 1019.6 hPa West 16.3 km/h 17.7 km/h 93% 0.0 mm 0 W/m2
18:48 8.2 °C 7 °C 1020.0 hPa WNW 7.9 km/h 14.5 km/h 92% 0.0 mm 0 W/m2
18:53 8.1 °C 6.7 °C 1020.0 hPa SW 6.4 km/h 11.3 km/h 91% 0.0 mm 0 W/m2
18:58 7.9 °C 6.5 °C 1020.0 hPa West 6.4 km/h 9.7 km/h 91% 0.0 mm 0 W/m2
19:03 7.9 °C 6.5 °C 1020.0 hPa West 4.7 km/h 16.1 km/h 91% 0.0 mm 0 W/m2
19:08 7.8 °C 6.3 °C 1019.6 hPa West 4.7 km/h 12.9 km/h 90% 0.0 mm 0 W/m2
19:13 7.7 °C 6.3 °C 1020.0 hPa WSW 6.4 km/h 16.1 km/h 91% 0.0 mm 0 W/m2
19:18 7.7 °C 6.3 °C 1020.0 hPa West 6.4 km/h 16.1 km/h 91% 0.0 mm 0 W/m2
19:23 7.6 °C 6.2 °C 1020.3 hPa WNW 6.4 km/h 11.3 km/h 91% 0.0 mm 0 W/m2
19:28 7.5 °C 6.1 °C 1020.3 hPa West 4.7 km/h 16.1 km/h 91% 0.0 mm 0 W/m2
19:33 7.4 °C 6 °C 1020.3 hPa West 6.4 km/h 11.3 km/h 91% 0.0 mm 0 W/m2
19:38 7.3 °C 5.9 °C 1020.3 hPa West 4.7 km/h 14.5 km/h 91% 0.0 mm 0 W/m2
19:43 7.2 °C 5.8 °C 1020.3 hPa West 6.4 km/h 8 km/h 91% 0.0 mm 0 W/m2
19:48 7.2 °C 5.8 °C 1020.3 hPa WNW 4.7 km/h 11.3 km/h 91% 0.0 mm 0 W/m2
19:53 7.2 °C 5.8 °C 1020.7 hPa WSW 6.4 km/h 8 km/h 91% 0.0 mm 0 W/m2
19:58 7.1 °C 5.7 °C 1020.7 hPa WNW 3.2 km/h 6.4 km/h 91% 0.0 mm 0 W/m2
20:03 7 °C 5.6 °C 1020.7 hPa WNW 3.2 km/h 6.4 km/h 91% 0.0 mm 0 W/m2
20:08 6.9 °C 5.5 °C 1020.7 hPa West 3.2 km/h 8 km/h 91% 0.0 mm 0 W/m2
20:13 6.8 °C 5.4 °C 1020.7 hPa WNW 4.7 km/h 9.7 km/h 91% 0.0 mm 0 W/m2
20:18 6.8 °C 5.4 °C 1020.3 hPa WSW 4.7 km/h 9.7 km/h 91% 0.0 mm 0 W/m2
20:23 6.8 °C 5.4 °C 1020.3 hPa West 3.2 km/h 11.3 km/h 91% 0.0 mm 0 W/m2
20:28 6.8 °C 5.4 °C 1020.3 hPa West 6.4 km/h 11.3 km/h 91% 0.0 mm 0 W/m2
20:33 6.8 °C 5.4 °C 1020.7 hPa West 4.7 km/h 11.3 km/h 91% 0.0 mm 0 W/m2
20:38 6.8 °C 5.4 °C 1020.7 hPa West 4.7 km/h 11.3 km/h 91% 0.0 mm 0 W/m2
20:43 6.7 °C 5.3 °C 1020.7 hPa West 6.4 km/h 12.9 km/h 91% 0.0 mm 0 W/m2
20:48 6.7 °C 5.3 °C 1020.7 hPa West 4.7 km/h 9.7 km/h 91% 0.0 mm 0 W/m2
20:53 6.6 °C 5.2 °C 1020.7 hPa WNW 6.4 km/h 12.9 km/h 91% 0.0 mm 0 W/m2
20:58 6.7 °C 5.3 °C 1020.7 hPa WNW 4.7 km/h 9.7 km/h 91% 0.0 mm 0 W/m2
21:03 6.7 °C 5.3 °C 1020.7 hPa West 6.4 km/h 9.7 km/h 91% 0.0 mm 0 W/m2
21:08 6.8 °C 5.4 °C 1020.7 hPa West 4.7 km/h 12.9 km/h 91% 0.0 mm 0 W/m2
21:13 6.8 °C 5.3 °C 1020.7 hPa WNW 3.2 km/h 9.7 km/h 90% 0.0 mm 0 W/m2
21:18 6.8 °C 5.3 °C 1020.7 hPa WNW 3.2 km/h 12.9 km/h 90% 0.0 mm 0 W/m2
21:23 6.7 °C 5.2 °C 1020.7 hPa NW 4.7 km/h 4.8 km/h 90% 0.0 mm 0 W/m2
21:28 6.4 °C 4.9 °C 1020.7 hPa WSW 6.4 km/h 11.3 km/h 90% 0.0 mm 0 W/m2
21:33 6.4 °C 5 °C 1021.0 hPa WNW 4.7 km/h 9.7 km/h 91% 0.0 mm 0 W/m2
21:38 6.4 °C 5 °C 1021.0 hPa West 4.7 km/h 11.3 km/h 91% 0.0 mm 0 W/m2
21:43 6.5 °C 5.1 °C 1021.0 hPa West 6.4 km/h 11.3 km/h 91% 0.0 mm 0 W/m2
21:48 6.7 °C 5.3 °C 1020.7 hPa West 9.7 km/h 12.9 km/h 91% 0.0 mm 0 W/m2
21:54 6.9 °C 5.4 °C 1020.7 hPa WNW 6.4 km/h 9.7 km/h 90% 0.0 mm 0 W/m2
21:59 6.9 °C 5.2 °C 1020.7 hPa West 6.4 km/h 14.5 km/h 89% 0.0 mm 0 W/m2
22:04 6.9 °C 5.2 °C 1020.7 hPa WNW 4.7 km/h 9.7 km/h 89% 0.0 mm 0 W/m2
22:09 6.9 °C 5.2 °C 1021.0 hPa WNW 4.7 km/h 14.5 km/h 89% 0.0 mm 0 W/m2
22:14 6.7 °C 5 °C 1021.0 hPa WNW 9.7 km/h 11.3 km/h 89% 0.0 mm 0 W/m2
22:19 6.6 °C 5.1 °C 1021.0 hPa West 9.7 km/h 11.3 km/h 90% 0.0 mm 0 W/m2
22:24 6.8 °C 5.3 °C 1021.0 hPa West 4.7 km/h 14.5 km/h 90% 0.0 mm 0 W/m2
22:29 6.8 °C 5.1 °C 1021.0 hPa West 9.7 km/h 12.9 km/h 89% 0.0 mm 0 W/m2
22:34 6.9 °C 5.2 °C 1021.0 hPa WNW 7.9 km/h 17.7 km/h 89% 0.0 mm 0 W/m2
22:39 6.9 °C 5.1 °C 1021.0 hPa WNW 4.7 km/h 11.3 km/h 88% 0.0 mm 0 W/m2
22:44 6.7 °C 5 °C 1021.3 hPa West 13 km/h 12.9 km/h 89% 0.0 mm 0 W/m2
22:49 6.7 °C 5 °C 1021.0 hPa WSW 3.2 km/h 11.3 km/h 89% 0.0 mm 0 W/m2
22:54 6.7 °C 5 °C 1021.3 hPa West 9.7 km/h 11.3 km/h 89% 0.0 mm 0 W/m2
22:59 6.6 °C 4.9 °C 1021.0 hPa WNW 7.9 km/h 11.3 km/h 89% 0.0 mm 0 W/m2
23:04 6.5 °C 4.8 °C 1021.0 hPa WNW 4.7 km/h 9.7 km/h 89% 0.0 mm 0 W/m2
23:09 6.5 °C 4.8 °C 1021.0 hPa WNW 6.4 km/h 16.1 km/h 89% 0.0 mm 0 W/m2
23:14 6.6 °C 4.9 °C 1021.0 hPa NNW 4.7 km/h 9.7 km/h 89% 0.0 mm 0 W/m2
23:19 6.7 °C 4.9 °C 1021.0 hPa WNW 6.4 km/h 16.1 km/h 88% 0.0 mm 0 W/m2
23:24 6.8 °C 5 °C 1021.0 hPa West 6.4 km/h 12.9 km/h 88% 0.0 mm 0 W/m2
23:29 6.8 °C 5 °C 1021.0 hPa West 13 km/h 16.1 km/h 88% 0.0 mm 0 W/m2
23:34 6.7 °C 4.7 °C 1021.0 hPa NW 3.2 km/h 6.4 km/h 87% 0.0 mm 0 W/m2
23:39 6.4 °C 4.6 °C 1021.0 hPa WNW 6.4 km/h 11.3 km/h 88% 0.0 mm 0 W/m2
23:44 6.2 °C 4.4 °C 1021.3 hPa Calm   4.8 km/h 88% 0.0 mm 0 W/m2
23:49 6.1 °C 4.4 °C 1021.3 hPa West 4.7 km/h 6.4 km/h 89% 0.0 mm 0 W/m2
23:54 6 °C 4.5 °C 1021.3 hPa North 1.4 km/h 3.2 km/h 90% 0.0 mm 0 W/m2
23:59 5.8 °C 4.1 °C 1021.3 hPa ESE 3.2 km/h 4.8 km/h 89% 0.0 mm 0 W/m2
Juneau County Weather
Compliments of Weather Underground - 4 mb